<?xml version="1.0" encoding="UTF-8" standalone="no" ?>
<gpx xmlns="http://www.topografix.com/GPX/1/1" xmlns:xsi="http://www.w3.org/2001/XMLSchema-instance" xsi:schemaLocation="http://www.topografix.com/GPX/1/1 http://www.topografix.com/GPX/1/1/gpx.xsd" version="1.1" creator="VisuGPX - https://www.visugpx.com">
  <metadata>
    <name>1ère partie 4000 marches ++++</name>
  </metadata>
  <trk>
    <name><![CDATA[14477615-4000 marches +++++]]></name>
    <extensions>
      <line xmlns="http://www.topografix.com/GPX/gpx_style/0/2">
        <color>0000FF</color>
        <width>4</width>
      </line>
    </extensions>
    <trkseg>
      <trkpt lat="44.08054" lon="3.64175">
        <ele>361</ele>
        <time>2022-03-28T18:34:46Z</time>
      </trkpt>
      <trkpt lat="44.08054" lon="3.64182">
        <ele>361</ele>
        <time>2022-03-28T18:34:49Z</time>
      </trkpt>
      <trkpt lat="44.08037" lon="3.6424">
        <ele>363</ele>
        <time>2022-03-28T18:35:11Z</time>
      </trkpt>
      <trkpt lat="44.08039" lon="3.64242">
        <ele>363</ele>
        <time>2022-03-28T18:35:12Z</time>
      </trkpt>
      <trkpt lat="44.08064" lon="3.64249">
        <ele>358</ele>
        <time>2022-03-28T18:35:25Z</time>
      </trkpt>
      <trkpt lat="44.08078" lon="3.64209">
        <ele>356</ele>
        <time>2022-03-28T18:35:41Z</time>
      </trkpt>
      <trkpt lat="44.08085" lon="3.6421">
        <ele>355</ele>
        <time>2022-03-28T18:35:45Z</time>
      </trkpt>
      <trkpt lat="44.08091" lon="3.64204">
        <ele>357</ele>
        <time>2022-03-28T18:35:48Z</time>
      </trkpt>
      <trkpt lat="44.08097" lon="3.64175">
        <ele>358</ele>
        <time>2022-03-28T18:35:59Z</time>
      </trkpt>
      <trkpt lat="44.08113" lon="3.64179">
        <ele>362</ele>
        <time>2022-03-28T18:36:07Z</time>
      </trkpt>
      <trkpt lat="44.08117" lon="3.6418">
        <ele>362</ele>
        <time>2022-03-28T18:36:09Z</time>
      </trkpt>
      <trkpt lat="44.08119" lon="3.6418">
        <ele>363</ele>
        <time>2022-03-28T18:36:10Z</time>
      </trkpt>
      <trkpt lat="44.08119" lon="3.64169">
        <ele>363</ele>
        <time>2022-03-28T18:36:14Z</time>
      </trkpt>
      <trkpt lat="44.08133" lon="3.64163">
        <ele>366</ele>
        <time>2022-03-28T18:36:22Z</time>
      </trkpt>
      <trkpt lat="44.08134" lon="3.64166">
        <ele>367</ele>
        <time>2022-03-28T18:36:23Z</time>
      </trkpt>
      <trkpt lat="44.08148" lon="3.64171">
        <ele>370</ele>
        <time>2022-03-28T18:36:30Z</time>
      </trkpt>
      <trkpt lat="44.08149" lon="3.64166">
        <ele>370</ele>
        <time>2022-03-28T18:36:32Z</time>
      </trkpt>
      <trkpt lat="44.08157" lon="3.64167">
        <ele>372</ele>
        <time>2022-03-28T18:36:36Z</time>
      </trkpt>
      <trkpt lat="44.08159" lon="3.64174">
        <ele>372</ele>
        <time>2022-03-28T18:36:39Z</time>
      </trkpt>
      <trkpt lat="44.08161" lon="3.64172">
        <ele>372</ele>
        <time>2022-03-28T18:36:40Z</time>
      </trkpt>
      <trkpt lat="44.08164" lon="3.64162">
        <ele>373</ele>
        <time>2022-03-28T18:36:44Z</time>
      </trkpt>
      <trkpt lat="44.08167" lon="3.64165">
        <ele>374</ele>
        <time>2022-03-28T18:36:46Z</time>
      </trkpt>
      <trkpt lat="44.08168" lon="3.64173">
        <ele>374</ele>
        <time>2022-03-28T18:36:48Z</time>
      </trkpt>
      <trkpt lat="44.08175" lon="3.64168">
        <ele>377</ele>
        <time>2022-03-28T18:36:52Z</time>
      </trkpt>
      <trkpt lat="44.08172" lon="3.64186">
        <ele>375</ele>
        <time>2022-03-28T18:36:59Z</time>
      </trkpt>
      <trkpt lat="44.08172" lon="3.64204">
        <ele>373</ele>
        <time>2022-03-28T18:37:06Z</time>
      </trkpt>
      <trkpt lat="44.08176" lon="3.64209">
        <ele>374</ele>
        <time>2022-03-28T18:37:08Z</time>
      </trkpt>
      <trkpt lat="44.0819" lon="3.64218">
        <ele>376</ele>
        <time>2022-03-28T18:37:16Z</time>
      </trkpt>
      <trkpt lat="44.08201" lon="3.64222">
        <ele>377</ele>
        <time>2022-03-28T18:37:22Z</time>
      </trkpt>
      <trkpt lat="44.08214" lon="3.64222">
        <ele>380</ele>
        <time>2022-03-28T18:37:28Z</time>
      </trkpt>
      <trkpt lat="44.08222" lon="3.64217">
        <ele>382</ele>
        <time>2022-03-28T18:37:32Z</time>
      </trkpt>
      <trkpt lat="44.08222" lon="3.6421">
        <ele>384</ele>
        <time>2022-03-28T18:37:35Z</time>
      </trkpt>
      <trkpt lat="44.08218" lon="3.64206">
        <ele>384</ele>
        <time>2022-03-28T18:37:37Z</time>
      </trkpt>
      <trkpt lat="44.08211" lon="3.64206">
        <ele>382</ele>
        <time>2022-03-28T18:37:41Z</time>
      </trkpt>
      <trkpt lat="44.08206" lon="3.64204">
        <ele>381</ele>
        <time>2022-03-28T18:37:44Z</time>
      </trkpt>
      <trkpt lat="44.08201" lon="3.64196">
        <ele>381</ele>
        <time>2022-03-28T18:37:47Z</time>
      </trkpt>
      <trkpt lat="44.08199" lon="3.64188">
        <ele>382</ele>
        <time>2022-03-28T18:37:50Z</time>
      </trkpt>
      <trkpt lat="44.08201" lon="3.64181">
        <ele>383</ele>
        <time>2022-03-28T18:37:53Z</time>
      </trkpt>
      <trkpt lat="44.08227" lon="3.64159">
        <ele>394</ele>
        <time>2022-03-28T18:38:08Z</time>
      </trkpt>
      <trkpt lat="44.08304" lon="3.64107">
        <ele>417</ele>
        <time>2022-03-28T18:38:51Z</time>
      </trkpt>
      <trkpt lat="44.08326" lon="3.64101">
        <ele>425</ele>
        <time>2022-03-28T18:39:02Z</time>
      </trkpt>
      <trkpt lat="44.08354" lon="3.6408">
        <ele>433</ele>
        <time>2022-03-28T18:39:18Z</time>
      </trkpt>
      <trkpt lat="44.08363" lon="3.64069">
        <ele>434</ele>
        <time>2022-03-28T18:39:24Z</time>
      </trkpt>
      <trkpt lat="44.08438" lon="3.6401">
        <ele>446</ele>
        <time>2022-03-28T18:40:07Z</time>
      </trkpt>
      <trkpt lat="44.08458" lon="3.63987">
        <ele>449</ele>
        <time>2022-03-28T18:40:20Z</time>
      </trkpt>
      <trkpt lat="44.08479" lon="3.63969">
        <ele>452</ele>
        <time>2022-03-28T18:40:33Z</time>
      </trkpt>
      <trkpt lat="44.08485" lon="3.6396">
        <ele>456</ele>
        <time>2022-03-28T18:40:37Z</time>
      </trkpt>
      <trkpt lat="44.08488" lon="3.6395">
        <ele>460</ele>
        <time>2022-03-28T18:40:41Z</time>
      </trkpt>
      <trkpt lat="44.08488" lon="3.63933">
        <ele>467</ele>
        <time>2022-03-28T18:40:47Z</time>
      </trkpt>
      <trkpt lat="44.08483" lon="3.6393">
        <ele>469</ele>
        <time>2022-03-28T18:40:50Z</time>
      </trkpt>
      <trkpt lat="44.0848" lon="3.63934">
        <ele>467</ele>
        <time>2022-03-28T18:40:52Z</time>
      </trkpt>
      <trkpt lat="44.08474" lon="3.63926">
        <ele>470</ele>
        <time>2022-03-28T18:40:56Z</time>
      </trkpt>
      <trkpt lat="44.08464" lon="3.63928">
        <ele>468</ele>
        <time>2022-03-28T18:41:01Z</time>
      </trkpt>
      <trkpt lat="44.08454" lon="3.63919">
        <ele>470</ele>
        <time>2022-03-28T18:41:07Z</time>
      </trkpt>
      <trkpt lat="44.08455" lon="3.63899">
        <ele>474</ele>
        <time>2022-03-28T18:41:14Z</time>
      </trkpt>
      <trkpt lat="44.08466" lon="3.63886">
        <ele>479</ele>
        <time>2022-03-28T18:41:22Z</time>
      </trkpt>
      <trkpt lat="44.08476" lon="3.63867">
        <ele>486</ele>
        <time>2022-03-28T18:41:30Z</time>
      </trkpt>
      <trkpt lat="44.08483" lon="3.63861">
        <ele>489</ele>
        <time>2022-03-28T18:41:34Z</time>
      </trkpt>
      <trkpt lat="44.0849" lon="3.63835">
        <ele>498</ele>
        <time>2022-03-28T18:41:44Z</time>
      </trkpt>
      <trkpt lat="44.08496" lon="3.63828">
        <ele>502</ele>
        <time>2022-03-28T18:41:48Z</time>
      </trkpt>
      <trkpt lat="44.08495" lon="3.63816">
        <ele>504</ele>
        <time>2022-03-28T18:41:52Z</time>
      </trkpt>
      <trkpt lat="44.08506" lon="3.63807">
        <ele>506</ele>
        <time>2022-03-28T18:41:59Z</time>
      </trkpt>
      <trkpt lat="44.08509" lon="3.63798">
        <ele>508</ele>
        <time>2022-03-28T18:42:02Z</time>
      </trkpt>
      <trkpt lat="44.08504" lon="3.63777">
        <ele>513</ele>
        <time>2022-03-28T18:42:10Z</time>
      </trkpt>
      <trkpt lat="44.08507" lon="3.6376">
        <ele>516</ele>
        <time>2022-03-28T18:42:17Z</time>
      </trkpt>
      <trkpt lat="44.08514" lon="3.63746">
        <ele>518</ele>
        <time>2022-03-28T18:42:23Z</time>
      </trkpt>
      <trkpt lat="44.08522" lon="3.63739">
        <ele>519</ele>
        <time>2022-03-28T18:42:27Z</time>
      </trkpt>
      <trkpt lat="44.08539" lon="3.6372">
        <ele>522</ele>
        <time>2022-03-28T18:42:38Z</time>
      </trkpt>
      <trkpt lat="44.08547" lon="3.63703">
        <ele>525</ele>
        <time>2022-03-28T18:42:46Z</time>
      </trkpt>
      <trkpt lat="44.08553" lon="3.6365">
        <ele>536</ele>
        <time>2022-03-28T18:43:05Z</time>
      </trkpt>
      <trkpt lat="44.08569" lon="3.63575">
        <ele>552</ele>
        <time>2022-03-28T18:43:33Z</time>
      </trkpt>
      <trkpt lat="44.08575" lon="3.63552">
        <ele>559</ele>
        <time>2022-03-28T18:43:42Z</time>
      </trkpt>
      <trkpt lat="44.08583" lon="3.63527">
        <ele>566</ele>
        <time>2022-03-28T18:43:52Z</time>
      </trkpt>
      <trkpt lat="44.08585" lon="3.63508">
        <ele>570</ele>
        <time>2022-03-28T18:43:59Z</time>
      </trkpt>
      <trkpt lat="44.08591" lon="3.63487">
        <ele>571</ele>
        <time>2022-03-28T18:44:07Z</time>
      </trkpt>
      <trkpt lat="44.08602" lon="3.63466">
        <ele>572</ele>
        <time>2022-03-28T18:44:16Z</time>
      </trkpt>
      <trkpt lat="44.08603" lon="3.63452">
        <ele>574</ele>
        <time>2022-03-28T18:44:21Z</time>
      </trkpt>
      <trkpt lat="44.08613" lon="3.63434">
        <ele>575</ele>
        <time>2022-03-28T18:44:29Z</time>
      </trkpt>
      <trkpt lat="44.08614" lon="3.6339">
        <ele>581</ele>
        <time>2022-03-28T18:44:45Z</time>
      </trkpt>
      <trkpt lat="44.08616" lon="3.63373">
        <ele>582</ele>
        <time>2022-03-28T18:44:51Z</time>
      </trkpt>
      <trkpt lat="44.08623" lon="3.63357">
        <ele>585</ele>
        <time>2022-03-28T18:44:58Z</time>
      </trkpt>
      <trkpt lat="44.08632" lon="3.63342">
        <ele>588</ele>
        <time>2022-03-28T18:45:05Z</time>
      </trkpt>
      <trkpt lat="44.08639" lon="3.63338">
        <ele>590</ele>
        <time>2022-03-28T18:45:09Z</time>
      </trkpt>
      <trkpt lat="44.08647" lon="3.63318">
        <ele>594</ele>
        <time>2022-03-28T18:45:17Z</time>
      </trkpt>
      <trkpt lat="44.08655" lon="3.63304">
        <ele>598</ele>
        <time>2022-03-28T18:45:24Z</time>
      </trkpt>
      <trkpt lat="44.08662" lon="3.63299">
        <ele>601</ele>
        <time>2022-03-28T18:45:27Z</time>
      </trkpt>
      <trkpt lat="44.08676" lon="3.63284">
        <ele>605</ele>
        <time>2022-03-28T18:45:36Z</time>
      </trkpt>
      <trkpt lat="44.0868" lon="3.63276">
        <ele>607</ele>
        <time>2022-03-28T18:45:40Z</time>
      </trkpt>
      <trkpt lat="44.08684" lon="3.63265">
        <ele>610</ele>
        <time>2022-03-28T18:45:44Z</time>
      </trkpt>
      <trkpt lat="44.08695" lon="3.63261">
        <ele>612</ele>
        <time>2022-03-28T18:45:50Z</time>
      </trkpt>
      <trkpt lat="44.08703" lon="3.63251">
        <ele>616</ele>
        <time>2022-03-28T18:45:55Z</time>
      </trkpt>
      <trkpt lat="44.0871" lon="3.63235">
        <ele>620</ele>
        <time>2022-03-28T18:46:02Z</time>
      </trkpt>
      <trkpt lat="44.08724" lon="3.63222">
        <ele>626</ele>
        <time>2022-03-28T18:46:10Z</time>
      </trkpt>
      <trkpt lat="44.08732" lon="3.63212">
        <ele>630</ele>
        <time>2022-03-28T18:46:16Z</time>
      </trkpt>
      <trkpt lat="44.08742" lon="3.63205">
        <ele>636</ele>
        <time>2022-03-28T18:46:21Z</time>
      </trkpt>
      <trkpt lat="44.08745" lon="3.63199">
        <ele>638</ele>
        <time>2022-03-28T18:46:24Z</time>
      </trkpt>
      <trkpt lat="44.08763" lon="3.63189">
        <ele>643</ele>
        <time>2022-03-28T18:46:34Z</time>
      </trkpt>
      <trkpt lat="44.08777" lon="3.63172">
        <ele>648</ele>
        <time>2022-03-28T18:46:43Z</time>
      </trkpt>
      <trkpt lat="44.08795" lon="3.63142">
        <ele>654</ele>
        <time>2022-03-28T18:46:57Z</time>
      </trkpt>
      <trkpt lat="44.08803" lon="3.6312">
        <ele>658</ele>
        <time>2022-03-28T18:47:06Z</time>
      </trkpt>
      <trkpt lat="44.08821" lon="3.63086">
        <ele>667</ele>
        <time>2022-03-28T18:47:21Z</time>
      </trkpt>
      <trkpt lat="44.08835" lon="3.63041">
        <ele>675</ele>
        <time>2022-03-28T18:47:39Z</time>
      </trkpt>
      <trkpt lat="44.08844" lon="3.63021">
        <ele>676</ele>
        <time>2022-03-28T18:47:47Z</time>
      </trkpt>
      <trkpt lat="44.08856" lon="3.63009">
        <ele>675</ele>
        <time>2022-03-28T18:47:55Z</time>
      </trkpt>
      <trkpt lat="44.08863" lon="3.62998">
        <ele>676</ele>
        <time>2022-03-28T18:48:00Z</time>
      </trkpt>
      <trkpt lat="44.08869" lon="3.62983">
        <ele>677</ele>
        <time>2022-03-28T18:48:06Z</time>
      </trkpt>
      <trkpt lat="44.08876" lon="3.62973">
        <ele>678</ele>
        <time>2022-03-28T18:48:11Z</time>
      </trkpt>
      <trkpt lat="44.08888" lon="3.62964">
        <ele>679</ele>
        <time>2022-03-28T18:48:18Z</time>
      </trkpt>
      <trkpt lat="44.08902" lon="3.62931">
        <ele>688</ele>
        <time>2022-03-28T18:48:32Z</time>
      </trkpt>
      <trkpt lat="44.08918" lon="3.62898">
        <ele>699</ele>
        <time>2022-03-28T18:48:46Z</time>
      </trkpt>
      <trkpt lat="44.08946" lon="3.62851">
        <ele>710</ele>
        <time>2022-03-28T18:49:08Z</time>
      </trkpt>
      <trkpt lat="44.08993" lon="3.62804">
        <ele>724</ele>
        <time>2022-03-28T18:49:37Z</time>
      </trkpt>
      <trkpt lat="44.09" lon="3.6279">
        <ele>730</ele>
        <time>2022-03-28T18:49:43Z</time>
      </trkpt>
      <trkpt lat="44.09011" lon="3.62778">
        <ele>733</ele>
        <time>2022-03-28T18:49:50Z</time>
      </trkpt>
      <trkpt lat="44.09045" lon="3.62765">
        <ele>734</ele>
        <time>2022-03-28T18:50:08Z</time>
      </trkpt>
      <trkpt lat="44.09072" lon="3.62749">
        <ele>737</ele>
        <time>2022-03-28T18:50:22Z</time>
      </trkpt>
      <trkpt lat="44.09095" lon="3.62742">
        <ele>738</ele>
        <time>2022-03-28T18:50:34Z</time>
      </trkpt>
      <trkpt lat="44.09119" lon="3.62726">
        <ele>742</ele>
        <time>2022-03-28T18:50:48Z</time>
      </trkpt>
      <trkpt lat="44.09134" lon="3.62722">
        <ele>742</ele>
        <time>2022-03-28T18:50:55Z</time>
      </trkpt>
      <trkpt lat="44.09146" lon="3.62706">
        <ele>748</ele>
        <time>2022-03-28T18:51:03Z</time>
      </trkpt>
      <trkpt lat="44.09168" lon="3.62666">
        <ele>762</ele>
        <time>2022-03-28T18:51:22Z</time>
      </trkpt>
      <trkpt lat="44.09177" lon="3.62656">
        <ele>765</ele>
        <time>2022-03-28T18:51:27Z</time>
      </trkpt>
      <trkpt lat="44.09189" lon="3.62649">
        <ele>765</ele>
        <time>2022-03-28T18:51:34Z</time>
      </trkpt>
      <trkpt lat="44.09203" lon="3.62644">
        <ele>764</ele>
        <time>2022-03-28T18:51:41Z</time>
      </trkpt>
      <trkpt lat="44.09219" lon="3.62634">
        <ele>764</ele>
        <time>2022-03-28T18:51:50Z</time>
      </trkpt>
      <trkpt lat="44.09239" lon="3.62598">
        <ele>772</ele>
        <time>2022-03-28T18:52:06Z</time>
      </trkpt>
      <trkpt lat="44.09253" lon="3.62578">
        <ele>774</ele>
        <time>2022-03-28T18:52:16Z</time>
      </trkpt>
      <trkpt lat="44.09264" lon="3.62559">
        <ele>774</ele>
        <time>2022-03-28T18:52:25Z</time>
      </trkpt>
      <trkpt lat="44.09272" lon="3.62536">
        <ele>777</ele>
        <time>2022-03-28T18:52:34Z</time>
      </trkpt>
      <trkpt lat="44.0928" lon="3.6252">
        <ele>777</ele>
        <time>2022-03-28T18:52:41Z</time>
      </trkpt>
      <trkpt lat="44.09283" lon="3.62505">
        <ele>780</ele>
        <time>2022-03-28T18:52:47Z</time>
      </trkpt>
      <trkpt lat="44.09299" lon="3.62466">
        <ele>783</ele>
        <time>2022-03-28T18:53:03Z</time>
      </trkpt>
      <trkpt lat="44.09313" lon="3.62441">
        <ele>784</ele>
        <time>2022-03-28T18:53:14Z</time>
      </trkpt>
      <trkpt lat="44.09324" lon="3.62409">
        <ele>787</ele>
        <time>2022-03-28T18:53:27Z</time>
      </trkpt>
      <trkpt lat="44.0935" lon="3.62339">
        <ele>796</ele>
        <time>2022-03-28T18:53:55Z</time>
      </trkpt>
      <trkpt lat="44.0937" lon="3.62298">
        <ele>800</ele>
        <time>2022-03-28T18:54:13Z</time>
      </trkpt>
      <trkpt lat="44.09388" lon="3.62269">
        <ele>803</ele>
        <time>2022-03-28T18:54:27Z</time>
      </trkpt>
      <trkpt lat="44.09401" lon="3.62236">
        <ele>810</ele>
        <time>2022-03-28T18:54:41Z</time>
      </trkpt>
      <trkpt lat="44.0941" lon="3.62218">
        <ele>813</ele>
        <time>2022-03-28T18:54:48Z</time>
      </trkpt>
      <trkpt lat="44.09429" lon="3.62199">
        <ele>814</ele>
        <time>2022-03-28T18:55:00Z</time>
      </trkpt>
      <trkpt lat="44.09476" lon="3.62139">
        <ele>821</ele>
        <time>2022-03-28T18:55:32Z</time>
      </trkpt>
      <trkpt lat="44.095" lon="3.62103">
        <ele>829</ele>
        <time>2022-03-28T18:55:50Z</time>
      </trkpt>
      <trkpt lat="44.09529" lon="3.62048">
        <ele>834</ele>
        <time>2022-03-28T18:56:14Z</time>
      </trkpt>
      <trkpt lat="44.09557" lon="3.62007">
        <ele>837</ele>
        <time>2022-03-28T18:56:35Z</time>
      </trkpt>
      <trkpt lat="44.09593" lon="3.61921">
        <ele>847</ele>
        <time>2022-03-28T18:57:10Z</time>
      </trkpt>
      <trkpt lat="44.09609" lon="3.6187">
        <ele>846</ele>
        <time>2022-03-28T18:57:30Z</time>
      </trkpt>
      <trkpt lat="44.09613" lon="3.61822">
        <ele>850</ele>
        <time>2022-03-28T18:57:48Z</time>
      </trkpt>
      <trkpt lat="44.09619" lon="3.61791">
        <ele>852</ele>
        <time>2022-03-28T18:57:59Z</time>
      </trkpt>
      <trkpt lat="44.09624" lon="3.61769">
        <ele>855</ele>
        <time>2022-03-28T18:58:08Z</time>
      </trkpt>
      <trkpt lat="44.09634" lon="3.61741">
        <ele>861</ele>
        <time>2022-03-28T18:58:19Z</time>
      </trkpt>
      <trkpt lat="44.09656" lon="3.61713">
        <ele>873</ele>
        <time>2022-03-28T18:58:34Z</time>
      </trkpt>
      <trkpt lat="44.09662" lon="3.61698">
        <ele>879</ele>
        <time>2022-03-28T18:58:40Z</time>
      </trkpt>
      <trkpt lat="44.09708" lon="3.61643">
        <ele>887</ele>
        <time>2022-03-28T18:59:10Z</time>
      </trkpt>
      <trkpt lat="44.09726" lon="3.61621">
        <ele>889</ele>
        <time>2022-03-28T18:59:22Z</time>
      </trkpt>
      <trkpt lat="44.09788" lon="3.61566">
        <ele>889</ele>
        <time>2022-03-28T18:59:59Z</time>
      </trkpt>
      <trkpt lat="44.0981" lon="3.61541">
        <ele>888</ele>
        <time>2022-03-28T19:00:13Z</time>
      </trkpt>
      <trkpt lat="44.09823" lon="3.61516">
        <ele>891</ele>
        <time>2022-03-28T19:00:24Z</time>
      </trkpt>
      <trkpt lat="44.09828" lon="3.61497">
        <ele>894</ele>
        <time>2022-03-28T19:00:32Z</time>
      </trkpt>
      <trkpt lat="44.09827" lon="3.61474">
        <ele>898</ele>
        <time>2022-03-28T19:00:40Z</time>
      </trkpt>
      <trkpt lat="44.09823" lon="3.61453">
        <ele>902</ele>
        <time>2022-03-28T19:00:48Z</time>
      </trkpt>
      <trkpt lat="44.09827" lon="3.61428">
        <ele>904</ele>
        <time>2022-03-28T19:00:57Z</time>
      </trkpt>
      <trkpt lat="44.09844" lon="3.61361">
        <ele>903</ele>
        <time>2022-03-28T19:01:22Z</time>
      </trkpt>
      <trkpt lat="44.09853" lon="3.61309">
        <ele>906</ele>
        <time>2022-03-28T19:01:42Z</time>
      </trkpt>
      <trkpt lat="44.09865" lon="3.61265">
        <ele>908</ele>
        <time>2022-03-28T19:01:59Z</time>
      </trkpt>
      <trkpt lat="44.09891" lon="3.61179">
        <ele>914</ele>
        <time>2022-03-28T19:02:32Z</time>
      </trkpt>
      <trkpt lat="44.09901" lon="3.61173">
        <ele>912</ele>
        <time>2022-03-28T19:02:37Z</time>
      </trkpt>
      <trkpt lat="44.09907" lon="3.61158">
        <ele>912</ele>
        <time>2022-03-28T19:02:44Z</time>
      </trkpt>
      <trkpt lat="44.09919" lon="3.61138">
        <ele>913</ele>
        <time>2022-03-28T19:02:53Z</time>
      </trkpt>
      <trkpt lat="44.09934" lon="3.61129">
        <ele>914</ele>
        <time>2022-03-28T19:03:01Z</time>
      </trkpt>
      <trkpt lat="44.09947" lon="3.61133">
        <ele>912</ele>
        <time>2022-03-28T19:03:08Z</time>
      </trkpt>
      <trkpt lat="44.09961" lon="3.61123">
        <ele>914</ele>
        <time>2022-03-28T19:03:16Z</time>
      </trkpt>
      <trkpt lat="44.09997" lon="3.61103">
        <ele>919</ele>
        <time>2022-03-28T19:03:35Z</time>
      </trkpt>
      <trkpt lat="44.10072" lon="3.61014">
        <ele>934</ele>
        <time>2022-03-28T19:04:24Z</time>
      </trkpt>
      <trkpt lat="44.10118" lon="3.60967">
        <ele>935</ele>
        <time>2022-03-28T19:04:53Z</time>
      </trkpt>
      <trkpt lat="44.1014" lon="3.6095">
        <ele>936</ele>
        <time>2022-03-28T19:05:06Z</time>
      </trkpt>
      <trkpt lat="44.10153" lon="3.60931">
        <ele>938</ele>
        <time>2022-03-28T19:05:15Z</time>
      </trkpt>
      <trkpt lat="44.10161" lon="3.60927">
        <ele>939</ele>
        <time>2022-03-28T19:05:19Z</time>
      </trkpt>
      <trkpt lat="44.10191" lon="3.60899">
        <ele>938</ele>
        <time>2022-03-28T19:05:37Z</time>
      </trkpt>
      <trkpt lat="44.10201" lon="3.60891">
        <ele>938</ele>
        <time>2022-03-28T19:05:43Z</time>
      </trkpt>
      <trkpt lat="44.10219" lon="3.60873">
        <ele>940</ele>
        <time>2022-03-28T19:05:54Z</time>
      </trkpt>
      <trkpt lat="44.10237" lon="3.60843">
        <ele>947</ele>
        <time>2022-03-28T19:06:08Z</time>
      </trkpt>
      <trkpt lat="44.10253" lon="3.60789">
        <ele>948</ele>
        <time>2022-03-28T19:06:29Z</time>
      </trkpt>
      <trkpt lat="44.10288" lon="3.60734">
        <ele>954</ele>
        <time>2022-03-28T19:06:56Z</time>
      </trkpt>
      <trkpt lat="44.10304" lon="3.60712">
        <ele>956</ele>
        <time>2022-03-28T19:07:07Z</time>
      </trkpt>
      <trkpt lat="44.1033" lon="3.60691">
        <ele>963</ele>
        <time>2022-03-28T19:07:22Z</time>
      </trkpt>
      <trkpt lat="44.10342" lon="3.60691">
        <ele>967</ele>
        <time>2022-03-28T19:07:28Z</time>
      </trkpt>
      <trkpt lat="44.10382" lon="3.60654">
        <ele>966</ele>
        <time>2022-03-28T19:07:52Z</time>
      </trkpt>
      <trkpt lat="44.10412" lon="3.60633">
        <ele>969</ele>
        <time>2022-03-28T19:08:09Z</time>
      </trkpt>
      <trkpt lat="44.10467" lon="3.60589">
        <ele>973</ele>
        <time>2022-03-28T19:08:41Z</time>
      </trkpt>
      <trkpt lat="44.1048" lon="3.60571">
        <ele>975</ele>
        <time>2022-03-28T19:08:50Z</time>
      </trkpt>
      <trkpt lat="44.10533" lon="3.60518">
        <ele>971</ele>
        <time>2022-03-28T19:09:22Z</time>
      </trkpt>
      <trkpt lat="44.10547" lon="3.60493">
        <ele>969</ele>
        <time>2022-03-28T19:09:34Z</time>
      </trkpt>
      <trkpt lat="44.10553" lon="3.6047">
        <ele>969</ele>
        <time>2022-03-28T19:09:43Z</time>
      </trkpt>
      <trkpt lat="44.10554" lon="3.60449">
        <ele>970</ele>
        <time>2022-03-28T19:09:50Z</time>
      </trkpt>
      <trkpt lat="44.10564" lon="3.60417">
        <ele>972</ele>
        <time>2022-03-28T19:10:03Z</time>
      </trkpt>
      <trkpt lat="44.10579" lon="3.60386">
        <ele>973</ele>
        <time>2022-03-28T19:10:16Z</time>
      </trkpt>
      <trkpt lat="44.1059" lon="3.60356">
        <ele>971</ele>
        <time>2022-03-28T19:10:28Z</time>
      </trkpt>
      <trkpt lat="44.10588" lon="3.6034">
        <ele>972</ele>
        <time>2022-03-28T19:10:34Z</time>
      </trkpt>
      <trkpt lat="44.10592" lon="3.60327">
        <ele>971</ele>
        <time>2022-03-28T19:10:39Z</time>
      </trkpt>
      <trkpt lat="44.10601" lon="3.60313">
        <ele>968</ele>
        <time>2022-03-28T19:10:46Z</time>
      </trkpt>
      <trkpt lat="44.10601" lon="3.603">
        <ele>967</ele>
        <time>2022-03-28T19:10:51Z</time>
      </trkpt>
      <trkpt lat="44.10607" lon="3.6027">
        <ele>967</ele>
        <time>2022-03-28T19:11:02Z</time>
      </trkpt>
      <trkpt lat="44.10605" lon="3.60256">
        <ele>967</ele>
        <time>2022-03-28T19:11:07Z</time>
      </trkpt>
      <trkpt lat="44.10608" lon="3.60238">
        <ele>967</ele>
        <time>2022-03-28T19:11:13Z</time>
      </trkpt>
      <trkpt lat="44.10612" lon="3.60222">
        <ele>968</ele>
        <time>2022-03-28T19:11:20Z</time>
      </trkpt>
      <trkpt lat="44.10618" lon="3.60208">
        <ele>969</ele>
        <time>2022-03-28T19:11:25Z</time>
      </trkpt>
      <trkpt lat="44.10627" lon="3.60199">
        <ele>972</ele>
        <time>2022-03-28T19:11:31Z</time>
      </trkpt>
      <trkpt lat="44.10635" lon="3.60184">
        <ele>975</ele>
        <time>2022-03-28T19:11:38Z</time>
      </trkpt>
      <trkpt lat="44.10639" lon="3.60172">
        <ele>978</ele>
        <time>2022-03-28T19:11:42Z</time>
      </trkpt>
      <trkpt lat="44.10645" lon="3.60146">
        <ele>986</ele>
        <time>2022-03-28T19:11:52Z</time>
      </trkpt>
      <trkpt lat="44.10639" lon="3.6013">
        <ele>987</ele>
        <time>2022-03-28T19:11:59Z</time>
      </trkpt>
      <trkpt lat="44.10634" lon="3.60093">
        <ele>993</ele>
        <time>2022-03-28T19:12:12Z</time>
      </trkpt>
      <trkpt lat="44.10631" lon="3.60065">
        <ele>997</ele>
        <time>2022-03-28T19:12:22Z</time>
      </trkpt>
      <trkpt lat="44.10637" lon="3.60006">
        <ele>1014</ele>
        <time>2022-03-28T19:12:44Z</time>
      </trkpt>
      <trkpt lat="44.10643" lon="3.59986">
        <ele>1021</ele>
        <time>2022-03-28T19:12:52Z</time>
      </trkpt>
      <trkpt lat="44.1064" lon="3.59969">
        <ele>1020</ele>
        <time>2022-03-28T19:12:58Z</time>
      </trkpt>
      <trkpt lat="44.1064" lon="3.59945">
        <ele>1023</ele>
        <time>2022-03-28T19:13:07Z</time>
      </trkpt>
      <trkpt lat="44.10625" lon="3.59911">
        <ele>1015</ele>
        <time>2022-03-28T19:13:21Z</time>
      </trkpt>
      <trkpt lat="44.10625" lon="3.59894">
        <ele>1016</ele>
        <time>2022-03-28T19:13:27Z</time>
      </trkpt>
      <trkpt lat="44.10628" lon="3.59876">
        <ele>1019</ele>
        <time>2022-03-28T19:13:34Z</time>
      </trkpt>
      <trkpt lat="44.10641" lon="3.59855">
        <ele>1030</ele>
        <time>2022-03-28T19:13:44Z</time>
      </trkpt>
      <trkpt lat="44.10648" lon="3.59837">
        <ele>1036</ele>
        <time>2022-03-28T19:13:51Z</time>
      </trkpt>
      <trkpt lat="44.10648" lon="3.59823">
        <ele>1039</ele>
        <time>2022-03-28T19:13:56Z</time>
      </trkpt>
      <trkpt lat="44.10652" lon="3.59808">
        <ele>1045</ele>
        <time>2022-03-28T19:14:02Z</time>
      </trkpt>
      <trkpt lat="44.10652" lon="3.59796">
        <ele>1048</ele>
        <time>2022-03-28T19:14:06Z</time>
      </trkpt>
      <trkpt lat="44.10658" lon="3.59777">
        <ele>1058</ele>
        <time>2022-03-28T19:14:14Z</time>
      </trkpt>
      <trkpt lat="44.10657" lon="3.59764">
        <ele>1060</ele>
        <time>2022-03-28T19:14:18Z</time>
      </trkpt>
      <trkpt lat="44.10629" lon="3.59741">
        <ele>1045</ele>
        <time>2022-03-28T19:14:34Z</time>
      </trkpt>
      <trkpt lat="44.10625" lon="3.59722">
        <ele>1045</ele>
        <time>2022-03-28T19:14:42Z</time>
      </trkpt>
      <trkpt lat="44.10623" lon="3.59692">
        <ele>1050</ele>
        <time>2022-03-28T19:14:52Z</time>
      </trkpt>
      <trkpt lat="44.10625" lon="3.59666">
        <ele>1056</ele>
        <time>2022-03-28T19:15:02Z</time>
      </trkpt>
      <trkpt lat="44.10623" lon="3.59645">
        <ele>1061</ele>
        <time>2022-03-28T19:15:09Z</time>
      </trkpt>
      <trkpt lat="44.10635" lon="3.59576">
        <ele>1086</ele>
        <time>2022-03-28T19:15:35Z</time>
      </trkpt>
      <trkpt lat="44.10634" lon="3.5956">
        <ele>1089</ele>
        <time>2022-03-28T19:15:41Z</time>
      </trkpt>
      <trkpt lat="44.10628" lon="3.5955">
        <ele>1088</ele>
        <time>2022-03-28T19:15:45Z</time>
      </trkpt>
      <trkpt lat="44.10628" lon="3.5953">
        <ele>1093</ele>
        <time>2022-03-28T19:15:53Z</time>
      </trkpt>
      <trkpt lat="44.10635" lon="3.59536">
        <ele>1094</ele>
        <time>2022-03-28T19:15:57Z</time>
      </trkpt>
      <trkpt lat="44.10643" lon="3.59536">
        <ele>1096</ele>
        <time>2022-03-28T19:16:01Z</time>
      </trkpt>
      <trkpt lat="44.10641" lon="3.59518">
        <ele>1098</ele>
        <time>2022-03-28T19:16:07Z</time>
      </trkpt>
      <trkpt lat="44.10648" lon="3.59514">
        <ele>1100</ele>
        <time>2022-03-28T19:16:11Z</time>
      </trkpt>
      <trkpt lat="44.10648" lon="3.59506">
        <ele>1101</ele>
        <time>2022-03-28T19:16:14Z</time>
      </trkpt>
      <trkpt lat="44.10657" lon="3.59498">
        <ele>1102</ele>
        <time>2022-03-28T19:16:19Z</time>
      </trkpt>
      <trkpt lat="44.10663" lon="3.59486">
        <ele>1101</ele>
        <time>2022-03-28T19:16:25Z</time>
      </trkpt>
      <trkpt lat="44.10699" lon="3.59464">
        <ele>1109</ele>
        <time>2022-03-28T19:16:44Z</time>
      </trkpt>
      <trkpt lat="44.10734" lon="3.59449">
        <ele>1118</ele>
        <time>2022-03-28T19:17:03Z</time>
      </trkpt>
      <trkpt lat="44.10736" lon="3.5944">
        <ele>1117</ele>
        <time>2022-03-28T19:17:06Z</time>
      </trkpt>
      <trkpt lat="44.10732" lon="3.59432">
        <ele>1114</ele>
        <time>2022-03-28T19:17:09Z</time>
      </trkpt>
      <trkpt lat="44.10733" lon="3.5942">
        <ele>1112</ele>
        <time>2022-03-28T19:17:14Z</time>
      </trkpt>
      <trkpt lat="44.10752" lon="3.59419">
        <ele>1119</ele>
        <time>2022-03-28T19:17:23Z</time>
      </trkpt>
      <trkpt lat="44.10761" lon="3.5941">
        <ele>1123</ele>
        <time>2022-03-28T19:17:29Z</time>
      </trkpt>
      <trkpt lat="44.10768" lon="3.59398">
        <ele>1127</ele>
        <time>2022-03-28T19:17:34Z</time>
      </trkpt>
      <trkpt lat="44.10767" lon="3.59388">
        <ele>1129</ele>
        <time>2022-03-28T19:17:38Z</time>
      </trkpt>
      <trkpt lat="44.10761" lon="3.59385">
        <ele>1129</ele>
        <time>2022-03-28T19:17:41Z</time>
      </trkpt>
      <trkpt lat="44.10761" lon="3.59379">
        <ele>1130</ele>
        <time>2022-03-28T19:17:43Z</time>
      </trkpt>
      <trkpt lat="44.10769" lon="3.59361">
        <ele>1136</ele>
        <time>2022-03-28T19:17:51Z</time>
      </trkpt>
      <trkpt lat="44.10778" lon="3.59356">
        <ele>1138</ele>
        <time>2022-03-28T19:17:56Z</time>
      </trkpt>
      <trkpt lat="44.10797" lon="3.59353">
        <ele>1141</ele>
        <time>2022-03-28T19:18:05Z</time>
      </trkpt>
      <trkpt lat="44.10806" lon="3.59347">
        <ele>1143</ele>
        <time>2022-03-28T19:18:10Z</time>
      </trkpt>
      <trkpt lat="44.10915" lon="3.59258">
        <ele>1172</ele>
        <time>2022-03-28T19:19:14Z</time>
      </trkpt>
      <trkpt lat="44.10923" lon="3.59255">
        <ele>1174</ele>
        <time>2022-03-28T19:19:18Z</time>
      </trkpt>
      <trkpt lat="44.10925" lon="3.59244">
        <ele>1177</ele>
        <time>2022-03-28T19:19:22Z</time>
      </trkpt>
      <trkpt lat="44.1092" lon="3.59236">
        <ele>1178</ele>
        <time>2022-03-28T19:19:26Z</time>
      </trkpt>
      <trkpt lat="44.10923" lon="3.59224">
        <ele>1183</ele>
        <time>2022-03-28T19:19:30Z</time>
      </trkpt>
      <trkpt lat="44.10936" lon="3.59215">
        <ele>1188</ele>
        <time>2022-03-28T19:19:37Z</time>
      </trkpt>
      <trkpt lat="44.10946" lon="3.59215">
        <ele>1190</ele>
        <time>2022-03-28T19:19:42Z</time>
      </trkpt>
      <trkpt lat="44.10959" lon="3.59202">
        <ele>1196</ele>
        <time>2022-03-28T19:19:50Z</time>
      </trkpt>
      <trkpt lat="44.10976" lon="3.59196">
        <ele>1200</ele>
        <time>2022-03-28T19:19:59Z</time>
      </trkpt>
      <trkpt lat="44.11" lon="3.59207">
        <ele>1201</ele>
        <time>2022-03-28T19:20:12Z</time>
      </trkpt>
      <trkpt lat="44.11" lon="3.59201">
        <ele>1202</ele>
        <time>2022-03-28T19:20:14Z</time>
      </trkpt>
      <trkpt lat="44.11005" lon="3.59195">
        <ele>1205</ele>
        <time>2022-03-28T19:20:17Z</time>
      </trkpt>
      <trkpt lat="44.11015" lon="3.59197">
        <ele>1208</ele>
        <time>2022-03-28T19:20:22Z</time>
      </trkpt>
      <trkpt lat="44.11021" lon="3.59194">
        <ele>1211</ele>
        <time>2022-03-28T19:20:26Z</time>
      </trkpt>
      <trkpt lat="44.11022" lon="3.59187">
        <ele>1212</ele>
        <time>2022-03-28T19:20:28Z</time>
      </trkpt>
      <trkpt lat="44.11053" lon="3.59164">
        <ele>1225</ele>
        <time>2022-03-28T19:20:46Z</time>
      </trkpt>
      <trkpt lat="44.11061" lon="3.59165">
        <ele>1227</ele>
        <time>2022-03-28T19:20:50Z</time>
      </trkpt>
      <trkpt lat="44.11087" lon="3.59149">
        <ele>1239</ele>
        <time>2022-03-28T19:21:04Z</time>
      </trkpt>
      <trkpt lat="44.11094" lon="3.59152">
        <ele>1240</ele>
        <time>2022-03-28T19:21:08Z</time>
      </trkpt>
      <trkpt lat="44.11095" lon="3.59145">
        <ele>1242</ele>
        <time>2022-03-28T19:21:10Z</time>
      </trkpt>
      <trkpt lat="44.11104" lon="3.59138">
        <ele>1247</ele>
        <time>2022-03-28T19:21:15Z</time>
      </trkpt>
      <trkpt lat="44.11116" lon="3.59144">
        <ele>1249</ele>
        <time>2022-03-28T19:21:22Z</time>
      </trkpt>
      <trkpt lat="44.1113" lon="3.59143">
        <ele>1253</ele>
        <time>2022-03-28T19:21:29Z</time>
      </trkpt>
      <trkpt lat="44.11138" lon="3.59147">
        <ele>1255</ele>
        <time>2022-03-28T19:21:33Z</time>
      </trkpt>
      <trkpt lat="44.11154" lon="3.59144">
        <ele>1260</ele>
        <time>2022-03-28T19:21:41Z</time>
      </trkpt>
      <trkpt lat="44.11179" lon="3.59148">
        <ele>1266</ele>
        <time>2022-03-28T19:21:54Z</time>
      </trkpt>
      <trkpt lat="44.11199" lon="3.5916">
        <ele>1269</ele>
        <time>2022-03-28T19:22:05Z</time>
      </trkpt>
      <trkpt lat="44.11205" lon="3.59167">
        <ele>1269</ele>
        <time>2022-03-28T19:22:08Z</time>
      </trkpt>
      <trkpt lat="44.11233" lon="3.59165">
        <ele>1277</ele>
        <time>2022-03-28T19:22:23Z</time>
      </trkpt>
      <trkpt lat="44.11253" lon="3.59145">
        <ele>1286</ele>
        <time>2022-03-28T19:22:35Z</time>
      </trkpt>
      <trkpt lat="44.11272" lon="3.59133">
        <ele>1291</ele>
        <time>2022-03-28T19:22:45Z</time>
      </trkpt>
      <trkpt lat="44.11295" lon="3.59132">
        <ele>1295</ele>
        <time>2022-03-28T19:22:57Z</time>
      </trkpt>
      <trkpt lat="44.11328" lon="3.59136">
        <ele>1301</ele>
        <time>2022-03-28T19:23:13Z</time>
      </trkpt>
      <trkpt lat="44.11319" lon="3.59145">
        <ele>1298</ele>
        <time>2022-03-28T19:23:19Z</time>
      </trkpt>
      <trkpt lat="44.11308" lon="3.59163">
        <ele>1293</ele>
        <time>2022-03-28T19:23:27Z</time>
      </trkpt>
      <trkpt lat="44.11309" lon="3.59173">
        <ele>1294</ele>
        <time>2022-03-28T19:23:31Z</time>
      </trkpt>
      <trkpt lat="44.11298" lon="3.59202">
        <ele>1295</ele>
        <time>2022-03-28T19:23:43Z</time>
      </trkpt>
      <trkpt lat="44.1129" lon="3.59238">
        <ele>1297</ele>
        <time>2022-03-28T19:23:56Z</time>
      </trkpt>
      <trkpt lat="44.11281" lon="3.59261">
        <ele>1297</ele>
        <time>2022-03-28T19:24:06Z</time>
      </trkpt>
      <trkpt lat="44.11276" lon="3.59293">
        <ele>1301</ele>
        <time>2022-03-28T19:24:18Z</time>
      </trkpt>
      <trkpt lat="44.1127" lon="3.5931">
        <ele>1302</ele>
        <time>2022-03-28T19:24:24Z</time>
      </trkpt>
      <trkpt lat="44.1127" lon="3.59345">
        <ele>1306</ele>
        <time>2022-03-28T19:24:37Z</time>
      </trkpt>
      <trkpt lat="44.1128" lon="3.59365">
        <ele>1308</ele>
        <time>2022-03-28T19:24:46Z</time>
      </trkpt>
      <trkpt lat="44.11305" lon="3.59392">
        <ele>1313</ele>
        <time>2022-03-28T19:25:01Z</time>
      </trkpt>
      <trkpt lat="44.11318" lon="3.59393">
        <ele>1317</ele>
        <time>2022-03-28T19:25:08Z</time>
      </trkpt>
      <trkpt lat="44.11328" lon="3.59398">
        <ele>1319</ele>
        <time>2022-03-28T19:25:13Z</time>
      </trkpt>
      <trkpt lat="44.1134" lon="3.5939">
        <ele>1321</ele>
        <time>2022-03-28T19:25:20Z</time>
      </trkpt>
      <trkpt lat="44.11343" lon="3.59376">
        <ele>1322</ele>
        <time>2022-03-28T19:25:25Z</time>
      </trkpt>
      <trkpt lat="44.11351" lon="3.59375">
        <ele>1323</ele>
        <time>2022-03-28T19:25:29Z</time>
      </trkpt>
      <trkpt lat="44.11375" lon="3.59343">
        <ele>1331</ele>
        <time>2022-03-28T19:25:46Z</time>
      </trkpt>
      <trkpt lat="44.11379" lon="3.59316">
        <ele>1333</ele>
        <time>2022-03-28T19:25:56Z</time>
      </trkpt>
      <trkpt lat="44.11415" lon="3.59267">
        <ele>1341</ele>
        <time>2022-03-28T19:26:21Z</time>
      </trkpt>
      <trkpt lat="44.11446" lon="3.59236">
        <ele>1347</ele>
        <time>2022-03-28T19:26:40Z</time>
      </trkpt>
      <trkpt lat="44.1147" lon="3.59201">
        <ele>1348</ele>
        <time>2022-03-28T19:26:57Z</time>
      </trkpt>
      <trkpt lat="44.11513" lon="3.59168">
        <ele>1358</ele>
        <time>2022-03-28T19:27:22Z</time>
      </trkpt>
      <trkpt lat="44.11537" lon="3.5914">
        <ele>1368</ele>
        <time>2022-03-28T19:27:38Z</time>
      </trkpt>
      <trkpt lat="44.11541" lon="3.59129">
        <ele>1370</ele>
        <time>2022-03-28T19:27:42Z</time>
      </trkpt>
      <trkpt lat="44.11532" lon="3.5909">
        <ele>1367</ele>
        <time>2022-03-28T19:27:57Z</time>
      </trkpt>
      <trkpt lat="44.11533" lon="3.59086">
        <ele>1367</ele>
        <time>2022-03-28T19:27:58Z</time>
      </trkpt>
      <trkpt lat="44.1153" lon="3.59034">
        <ele>1369</ele>
        <time>2022-03-28T19:28:17Z</time>
      </trkpt>
      <trkpt lat="44.11508" lon="3.58927">
        <ele>1376</ele>
        <time>2022-03-28T19:28:57Z</time>
      </trkpt>
      <trkpt lat="44.11476" lon="3.5887">
        <ele>1380</ele>
        <time>2022-03-28T19:29:23Z</time>
      </trkpt>
      <trkpt lat="44.1145" lon="3.58844">
        <ele>1379</ele>
        <time>2022-03-28T19:29:39Z</time>
      </trkpt>
      <trkpt lat="44.11411" lon="3.58796">
        <ele>1370</ele>
        <time>2022-03-28T19:30:05Z</time>
      </trkpt>
      <trkpt lat="44.11405" lon="3.58787">
        <ele>1367</ele>
        <time>2022-03-28T19:30:10Z</time>
      </trkpt>
      <trkpt lat="44.11401" lon="3.58777">
        <ele>1365</ele>
        <time>2022-03-28T19:30:14Z</time>
      </trkpt>
      <trkpt lat="44.11399" lon="3.58746">
        <ele>1363</ele>
        <time>2022-03-28T19:30:25Z</time>
      </trkpt>
      <trkpt lat="44.11401" lon="3.58731">
        <ele>1362</ele>
        <time>2022-03-28T19:30:30Z</time>
      </trkpt>
      <trkpt lat="44.11406" lon="3.58722">
        <ele>1364</ele>
        <time>2022-03-28T19:30:34Z</time>
      </trkpt>
      <trkpt lat="44.11412" lon="3.58716">
        <ele>1367</ele>
        <time>2022-03-28T19:30:38Z</time>
      </trkpt>
      <trkpt lat="44.11433" lon="3.58712">
        <ele>1374</ele>
        <time>2022-03-28T19:30:49Z</time>
      </trkpt>
      <trkpt lat="44.11462" lon="3.58689">
        <ele>1381</ele>
        <time>2022-03-28T19:31:05Z</time>
      </trkpt>
      <trkpt lat="44.11478" lon="3.58671">
        <ele>1384</ele>
        <time>2022-03-28T19:31:16Z</time>
      </trkpt>
      <trkpt lat="44.11546" lon="3.58726">
        <ele>1406</ele>
        <time>2022-03-28T19:31:55Z</time>
      </trkpt>
      <trkpt lat="44.11625" lon="3.58826">
        <ele>1436</ele>
        <time>2022-03-28T19:32:48Z</time>
      </trkpt>
      <trkpt lat="44.1164" lon="3.58809">
        <ele>1438</ele>
        <time>2022-03-28T19:32:58Z</time>
      </trkpt>
      <trkpt lat="44.1166" lon="3.58799">
        <ele>1442</ele>
        <time>2022-03-28T19:33:09Z</time>
      </trkpt>
      <trkpt lat="44.11698" lon="3.58784">
        <ele>1450</ele>
        <time>2022-03-28T19:33:29Z</time>
      </trkpt>
      <trkpt lat="44.11744" lon="3.58772">
        <ele>1461</ele>
        <time>2022-03-28T19:33:52Z</time>
      </trkpt>
      <trkpt lat="44.11789" lon="3.58767">
        <ele>1473</ele>
        <time>2022-03-28T19:34:15Z</time>
      </trkpt>
      <trkpt lat="44.11865" lon="3.58745">
        <ele>1486</ele>
        <time>2022-03-28T19:34:53Z</time>
      </trkpt>
      <trkpt lat="44.11912" lon="3.58714">
        <ele>1491</ele>
        <time>2022-03-28T19:35:19Z</time>
      </trkpt>
      <trkpt lat="44.11937" lon="3.58686">
        <ele>1492</ele>
        <time>2022-03-28T19:35:36Z</time>
      </trkpt>
      <trkpt lat="44.11944" lon="3.58673">
        <ele>1493</ele>
        <time>2022-03-28T19:35:41Z</time>
      </trkpt>
      <trkpt lat="44.11948" lon="3.5867">
        <ele>1494</ele>
        <time>2022-03-28T19:35:44Z</time>
      </trkpt>
      <trkpt lat="44.11966" lon="3.58642">
        <ele>1498</ele>
        <time>2022-03-28T19:35:57Z</time>
      </trkpt>
      <trkpt lat="44.11979" lon="3.58613">
        <ele>1502</ele>
        <time>2022-03-28T19:36:09Z</time>
      </trkpt>
      <trkpt lat="44.11994" lon="3.58565">
        <ele>1509</ele>
        <time>2022-03-28T19:36:28Z</time>
      </trkpt>
      <trkpt lat="44.12007" lon="3.58509">
        <ele>1515</ele>
        <time>2022-03-28T19:36:49Z</time>
      </trkpt>
      <trkpt lat="44.12088" lon="3.58276">
        <ele>1536</ele>
        <time>2022-03-28T19:38:22Z</time>
      </trkpt>
      <trkpt lat="44.12092" lon="3.58262">
        <ele>1537</ele>
        <time>2022-03-28T19:38:28Z</time>
      </trkpt>
      <trkpt lat="44.12092" lon="3.58253">
        <ele>1536</ele>
        <time>2022-03-28T19:38:31Z</time>
      </trkpt>
      <trkpt lat="44.12102" lon="3.58214">
        <ele>1539</ele>
        <time>2022-03-28T19:38:46Z</time>
      </trkpt>
      <trkpt lat="44.12108" lon="3.58213">
        <ele>1541</ele>
        <time>2022-03-28T19:38:49Z</time>
      </trkpt>
      <trkpt lat="44.12105" lon="3.58202">
        <ele>1541</ele>
        <time>2022-03-28T19:38:53Z</time>
      </trkpt>
    </trkseg>
  </trk>
</gpx>